sensor_id;sensor_type;location;lat;lon;timestamp;pressure;altitude;pressure_sealevel;temperature;humidity
18900;BME280;9582;52.018;6.306;2023-04-29T00:00:47;101385.19;;;9.47;100.00
18900;BME280;9582;52.018;6.306;2023-04-29T00:03:13;101388.69;;;9.46;100.00
18900;BME280;9582;52.018;6.306;2023-04-29T00:05:40;101391.34;;;9.44;100.00
18900;BME280;9582;52.018;6.306;2023-04-29T00:08:07;101396.59;;;9.44;100.00
18900;BME280;9582;52.018;6.306;2023-04-29T00:10:33;101396.66;;;9.41;100.00
18900;BME280;9582;52.018;6.306;2023-04-29T00:13:00;101393.19;;;9.41;100.00
18900;BME280;9582;52.018;6.306;2023-04-29T00:15:27;101395.91;;;9.38;100.00
18900;BME280;9582;52.018;6.306;2023-04-29T00:17:55;101397.66;;;9.37;100.00
18900;BME280;9582;52.018;6.306;2023-04-29T00:20:21;101400.31;;;9.36;100.00
18900;BME280;9582;52.018;6.306;2023-04-29T00:22:48;101400.31;;;9.36;100.00
18900;BME280;9582;52.018;6.306;2023-04-29T00:25:14;101403.81;;;9.35;100.00
18900;BME280;9582;52.018;6.306;2023-04-29T00:27:41;101408.22;;;9.34;100.00
18900;BME280;9582;52.018;6.306;2023-04-29T00:30:08;101404.78;;;9.32;100.00
18900;BME280;9582;52.018;6.306;2023-04-29T00:32:35;101409.13;;;9.32;100.00
18900;BME280;9582;52.018;6.306;2023-04-29T00:35:04;101416.13;;;9.31;100.00
18900;BME280;9582;52.018;6.306;2023-04-29T00:37:31;101410.09;;;9.29;100.00
18900;BME280;9582;52.018;6.306;2023-04-29T00:39:57;101414.44;;;9.28;100.00
18900;BME280;9582;52.018;6.306;2023-04-29T00:42:24;101421.44;;;9.28;100.00
18900;BME280;9582;52.018;6.306;2023-04-29T00:44:51;101421.47;;;9.26;100.00
18900;BME280;9582;52.018;6.306;2023-04-29T00:47:17;101425.84;;;9.26;100.00
18900;BME280;9582;52.018;6.306;2023-04-29T00:49:44;101421.53;;;9.25;100.00
18900;BME280;9582;52.018;6.306;2023-04-29T00:52:13;101423.28;;;9.24;100.00
18900;BME280;9582;52.018;6.306;2023-04-29T00:54:40;101422.47;;;9.22;100.00
18900;BME280;9582;52.018;6.306;2023-04-29T00:57:07;101424.22;;;9.22;100.00
18900;BME280;9582;52.018;6.306;2023-04-29T00:59:34;101432.00;;;9.23;100.00
18900;BME280;9582;52.018;6.306;2023-04-29T01:02:02;101432.06;;;9.22;100.00
18900;BME280;9582;52.018;6.306;2023-04-29T01:04:29;101440.84;;;9.19;100.00
18900;BME280;9582;52.018;6.306;2023-04-29T01:07:01;101434.69;;;9.20;100.00
18900;BME280;9582;52.018;6.306;2023-04-29T01:09:47;101438.22;;;9.19;100.00
18900;BME280;9582;52.018;6.306;2023-04-29T01:12:20;101443.44;;;9.19;100.00
18900;BME280;9582;52.018;6.306;2023-04-29T01:14:53;101446.94;;;9.18;100.00
18900;BME280;9582;52.018;6.306;2023-04-29T01:17:30;101442.59;;;9.17;100.00
18900;BME280;9582;52.018;6.306;2023-04-29T01:19:59;101452.16;;;9.18;100.00
18900;BME280;9582;52.018;6.306;2023-04-29T01:22:27;101455.66;;;9.17;100.00
18900;BME280;9582;52.018;6.306;2023-04-29T01:24:55;101451.34;;;9.16;100.00
18900;BME280;9582;52.018;6.306;2023-04-29T01:27:27;101452.22;;;9.17;100.00
18900;BME280;9582;52.018;6.306;2023-04-29T01:30:08;101454.84;;;9.15;100.00
18900;BME280;9582;52.018;6.306;2023-04-29T01:32:42;101460.06;;;9.15;100.00
18900;BME280;9582;52.018;6.306;2023-04-29T01:35:22;101465.25;;;9.17;100.00
18900;BME280;9582;52.018;6.306;2023-04-29T01:37:59;101464.41;;;9.16;100.00
18900;BME280;9582;52.018;6.306;2023-04-29T01:40:33;101458.31;;;9.16;100.00
18900;BME280;9582;52.018;6.306;2023-04-29T01:43:09;101472.25;;;9.15;100.00
18900;BME280;9582;52.018;6.306;2023-04-29T01:45:41;101474.00;;;9.14;100.00
18900;BME280;9582;52.018;6.306;2023-04-29T01:48:09;101478.34;;;9.15;96.32
18900;BME280;9582;52.018;6.306;2023-04-29T01:50:37;101473.97;;;9.16;89.36
18900;BME280;9582;52.018;6.306;2023-04-29T01:53:09;101480.91;;;9.17;84.17
18900;BME280;9582;52.018;6.306;2023-04-29T01:55:37;101481.75;;;9.17;80.59
18900;BME280;9582;52.018;6.306;2023-04-29T01:58:14;101474.84;;;9.16;78.69
18900;BME280;9582;52.018;6.306;2023-04-29T02:00:52;101471.38;;;9.16;77.11
18900;BME280;9582;52.018;6.306;2023-04-29T02:03:19;101477.47;;;9.15;75.97
18900;BME280;9582;52.018;6.306;2023-04-29T02:05:49;101476.63;;;9.14;75.18
18900;BME280;9582;52.018;6.306;2023-04-29T02:08:16;101476.63;;;9.14;74.55
18900;BME280;9582;52.018;6.306;2023-04-29T02:10:52;101486.16;;;9.15;73.90
18900;BME280;9582;52.018;6.306;2023-04-29T02:13:39;101489.66;;;9.14;73.23
18900;BME280;9582;52.018;6.306;2023-04-29T02:16:07;101490.59;;;9.13;72.82
18900;BME280;9582;52.018;6.306;2023-04-29T02:18:34;101494.88;;;9.14;72.22
18900;BME280;9582;52.018;6.306;2023-04-29T02:21:03;101494.88;;;9.14;71.99
18900;BME280;9582;52.018;6.306;2023-04-29T02:23:32;101502.72;;;9.14;71.74
18900;BME280;9582;52.018;6.306;2023-04-29T02:26:00;101506.19;;;9.15;71.55
18900;BME280;9582;52.018;6.306;2023-04-29T02:28:28;101503.53;;;9.16;71.27
18900;BME280;9582;52.018;6.306;2023-04-29T02:30:56;101506.19;;;9.15;71.27
18900;BME280;9582;52.018;6.306;2023-04-29T02:33:22;101507.91;;;9.14;71.37
18900;BME280;9582;52.018;6.306;2023-04-29T02:35:49;101521.84;;;9.15;71.63
18900;BME280;9582;52.018;6.306;2023-04-29T02:38:15;101516.66;;;9.13;72.38
18900;BME280;9582;52.018;6.306;2023-04-29T02:40:43;101525.38;;;9.12;73.41
18900;BME280;9582;52.018;6.306;2023-04-29T02:43:11;101527.09;;;9.13;74.47
18900;BME280;9582;52.018;6.306;2023-04-29T02:45:38;101530.56;;;9.14;75.42
18900;BME280;9582;52.018;6.306;2023-04-29T02:48:05;101537.47;;;9.15;76.42
18900;BME280;9582;52.018;6.306;2023-04-29T02:50:32;101534.06;;;9.13;77.95
18900;BME280;9582;52.018;6.306;2023-04-29T02:52:59;101538.44;;;9.12;80.34
18900;BME280;9582;52.018;6.306;2023-04-29T02:55:26;101548.00;;;9.12;83.06
18900;BME280;9582;52.018;6.306;2023-04-29T02:57:56;101542.84;;;9.10;87.60
18900;BME280;9582;52.018;6.306;2023-04-29T03:00:23;101548.91;;;9.11;93.36
18900;BME280;9582;52.018;6.306;2023-04-29T03:02:50;101560.22;;;9.11;98.21
18900;BME280;9582;52.018;6.306;2023-04-29T03:05:17;101561.09;;;9.10;100.00
18900;BME280;9582;52.018;6.306;2023-04-29T03:07:43;101568.94;;;9.09;100.00
18900;BME280;9582;52.018;6.306;2023-04-29T03:10:10;101565.44;;;9.11;100.00
18900;BME280;9582;52.018;6.306;2023-04-29T03:12:37;101565.50;;;9.08;100.00
18900;BME280;9582;52.018;6.306;2023-04-29T03:15:05;101569.88;;;9.08;100.00
18900;BME280;9582;52.018;6.306;2023-04-29T03:17:34;101566.47;;;9.06;100.00
18900;BME280;9582;52.018;6.306;2023-04-29T03:20:00;101563.75;;;9.09;100.00
18900;BME280;9582;52.018;6.306;2023-04-29T03:22:27;101565.59;;;9.05;100.00
18900;BME280;9582;52.018;6.306;2023-04-29T03:24:54;101571.63;;;9.07;100.00
18900;BME280;9582;52.018;6.306;2023-04-29T03:27:20;101572.47;;;9.08;100.00
18900;BME280;9582;52.018;6.306;2023-04-29T03:29:48;101571.69;;;9.06;100.00
18900;BME280;9582;52.018;6.306;2023-04-29T03:32:15;101575.16;;;9.05;100.00
18900;BME280;9582;52.018;6.306;2023-04-29T03:34:45;101579.53;;;9.04;100.00
18900;BME280;9582;52.018;6.306;2023-04-29T03:37:23;101579.53;;;9.04;100.00
18900;BME280;9582;52.018;6.306;2023-04-29T03:39:56;101583.88;;;9.04;100.00
18900;BME280;9582;52.018;6.306;2023-04-29T03:42:23;101588.25;;;9.03;100.00
18900;BME280;9582;52.018;6.306;2023-04-29T03:44:49;101581.28;;;9.04;100.00
18900;BME280;9582;52.018;6.306;2023-04-29T03:47:16;101587.44;;;9.01;100.00
18900;BME280;9582;52.018;6.306;2023-04-29T03:49:46;101591.78;;;9.01;100.00
18900;BME280;9582;52.018;6.306;2023-04-29T03:52:13;101590.13;;;8.98;100.00
18900;BME280;9582;52.018;6.306;2023-04-29T03:54:40;101590.09;;;9.00;100.00
18900;BME280;9582;52.018;6.306;2023-04-29T03:57:07;101593.63;;;8.97;100.00
18900;BME280;9582;52.018;6.306;2023-04-29T03:59:33;101600.63;;;8.95;100.00
18900;BME280;9582;52.018;6.306;2023-04-29T04:02:00;101598.94;;;8.94;100.00
18900;BME280;9582;52.018;6.306;2023-04-29T04:04:26;101611.06;;;8.95;100.00
18900;BME280;9582;52.018;6.306;2023-04-29T04:06:54;101605.84;;;8.95;100.00
18900;BME280;9582;52.018;6.306;2023-04-29T04:09:25;101616.34;;;8.92;100.00
18900;BME280;9582;52.018;6.306;2023-04-29T04:11:52;101613.72;;;8.94;100.00
18900;BME280;9582;52.018;6.306;2023-04-29T04:14:19;101618.94;;;8.94;100.00
18900;BME280;9582;52.018;6.306;2023-04-29T04:16:45;101621.56;;;8.92;100.00
18900;BME280;9582;52.018;6.306;2023-04-29T04:19:15;101625.91;;;8.93;100.00
18900;BME280;9582;52.018;6.306;2023-04-29T04:21:43;101628.44;;;8.95;100.00
18900;BME280;9582;52.018;6.306;2023-04-29T04:24:11;101636.28;;;8.95;100.00
18900;BME280;9582;52.018;6.306;2023-04-29T04:26:38;101641.50;;;8.95;100.00
18900;BME280;9582;52.018;6.306;2023-04-29T04:29:26;101638.00;;;8.96;100.00
18900;BME280;9582;52.018;6.306;2023-04-29T04:31:59;101644.97;;;8.95;100.00
18900;BME280;9582;52.018;6.306;2023-04-29T04:34:25;101637.13;;;8.95;100.00
18900;BME280;9582;52.018;6.306;2023-04-29T04:36:54;101644.09;;;8.96;100.00
18900;BME280;9582;52.018;6.306;2023-04-29T04:39:22;101641.50;;;8.95;100.00
18900;BME280;9582;52.018;6.306;2023-04-29T04:41:50;101651.91;;;8.96;100.00
18900;BME280;9582;52.018;6.306;2023-04-29T04:44:18;101653.66;;;8.96;100.00
18900;BME280;9582;52.018;6.306;2023-04-29T04:47:05;101658.00;;;8.95;100.00
18900;BME280;9582;52.018;6.306;2023-04-29T04:49:54;101659.72;;;8.96;100.00
18900;BME280;9582;52.018;6.306;2023-04-29T04:52:21;101663.22;;;8.95;100.00
18900;BME280;9582;52.018;6.306;2023-04-29T04:54:59;101664.09;;;8.96;100.00
18900;BME280;9582;52.018;6.306;2023-04-29T04:57:28;101666.69;;;8.97;100.00
18900;BME280;9582;52.018;6.306;2023-04-29T04:59:59;101674.50;;;8.97;100.00
18900;BME280;9582;52.018;6.306;2023-04-29T05:02:25;101671.81;;;9.00;100.00
18900;BME280;9582;52.018;6.306;2023-04-29T05:04:52;101685.75;;;8.99;100.00
18900;BME280;9582;52.018;6.306;2023-04-29T05:07:20;101674.44;;;8.99;100.00
18900;BME280;9582;52.018;6.306;2023-04-29T05:10:01;101672.69;;;8.99;100.00
18900;BME280;9582;52.018;6.306;2023-04-29T05:12:29;101670.09;;;8.99;100.00
18900;BME280;9582;52.018;6.306;2023-04-29T05:14:58;101688.34;;;8.99;100.00
18900;BME280;9582;52.018;6.306;2023-04-29T05:17:26;101679.66;;;9.00;100.00
18900;BME280;9582;52.018;6.306;2023-04-29T05:19:54;101690.97;;;8.99;100.00
18900;BME280;9582;52.018;6.306;2023-04-29T05:22:20;101689.22;;;9.00;100.00
18900;BME280;9582;52.018;6.306;2023-04-29T05:24:47;101690.97;;;8.99;100.00
18900;BME280;9582;52.018;6.306;2023-04-29T05:27:16;101694.38;;;9.03;100.00
18900;BME280;9582;52.018;6.306;2023-04-29T05:29:43;101701.31;;;9.02;100.00
18900;BME280;9582;52.018;6.306;2023-04-29T05:32:10;101706.53;;;9.02;100.00
18900;BME280;9582;52.018;6.306;2023-04-29T05:34:37;101705.63;;;9.03;100.00
18900;BME280;9582;52.018;6.306;2023-04-29T05:37:04;101711.72;;;9.04;100.00
18900;BME280;9582;52.018;6.306;2023-04-29T05:39:37;101711.69;;;9.05;100.00
18900;BME280;9582;52.018;6.306;2023-04-29T05:42:10;101712.50;;;9.07;100.00
18900;BME280;9582;52.018;6.306;2023-04-29T05:44:47;101716.84;;;9.08;100.00
18900;BME280;9582;52.018;6.306;2023-04-29T05:47:14;101719.38;;;9.10;100.00
18900;BME280;9582;52.018;6.306;2023-04-29T05:49:41;101728.88;;;9.12;100.00
18900;BME280;9582;52.018;6.306;2023-04-29T05:52:07;101729.69;;;9.16;100.00
18900;BME280;9582;52.018;6.306;2023-04-29T05:54:39;101728.81;;;9.15;100.00
18900;BME280;9582;52.018;6.306;2023-04-29T05:57:06;101731.34;;;9.20;100.00
18900;BME280;9582;52.018;6.306;2023-04-29T05:59:33;101735.63;;;9.22;100.00
18900;BME280;9582;52.018;6.306;2023-04-29T06:02:05;101732.03;;;9.26;100.00
18900;BME280;9582;52.018;6.306;2023-04-29T06:04:33;101745.97;;;9.25;100.00
18900;BME280;9582;52.018;6.306;2023-04-29T06:07:19;101746.75;;;9.29;100.00
18900;BME280;9582;52.018;6.306;2023-04-29T06:09:49;101754.56;;;9.31;100.00
18900;BME280;9582;52.018;6.306;2023-04-29T06:12:16;101755.38;;;9.33;100.00
18900;BME280;9582;52.018;6.306;2023-04-29T06:14:44;101751.00;;;9.33;100.00
18900;BME280;9582;52.018;6.306;2023-04-29T06:17:13;101759.63;;;9.37;100.00
18900;BME280;9582;52.018;6.306;2023-04-29T06:19:40;101757.78;;;9.40;100.00
18900;BME280;9582;52.018;6.306;2023-04-29T06:22:08;101758.63;;;9.41;100.00
18900;BME280;9582;52.018;6.306;2023-04-29T06:24:36;101766.41;;;9.44;100.00
18900;BME280;9582;52.018;6.306;2023-04-29T06:27:04;101768.97;;;9.45;100.00
18900;BME280;9582;52.018;6.306;2023-04-29T06:29:30;101768.03;;;9.48;100.00
18900;BME280;9582;52.018;6.306;2023-04-29T06:31:57;101774.88;;;9.52;100.00
18900;BME280;9582;52.018;6.306;2023-04-29T06:34:25;101782.63;;;9.56;100.00
18900;BME280;9582;52.018;6.306;2023-04-29T06:37:24;101781.59;;;9.62;100.00
18900;BME280;9582;52.018;6.306;2023-04-29T06:40:01;101790.31;;;9.62;100.00
18900;BME280;9582;52.018;6.306;2023-04-29T06:42:47;101798.91;;;9.66;100.00
18900;BME280;9582;52.018;6.306;2023-04-29T06:45:34;101807.66;;;9.65;100.00
18900;BME280;9582;52.018;6.306;2023-04-29T06:48:06;101807.47;;;9.71;100.00
18900;BME280;9582;52.018;6.306;2023-04-29T06:50:52;101808.31;;;9.73;100.00
18900;BME280;9582;52.018;6.306;2023-04-29T06:53:19;101816.16;;;9.71;100.00
18900;BME280;9582;52.018;6.306;2023-04-29T06:55:46;101820.44;;;9.75;100.00
18900;BME280;9582;52.018;6.306;2023-04-29T06:58:12;101820.34;;;9.78;100.00
18900;BME280;9582;52.018;6.306;2023-04-29T07:00:39;101818.69;;;9.76;100.00
18900;BME280;9582;52.018;6.306;2023-04-29T07:03:06;101827.28;;;9.79;100.00
18900;BME280;9582;52.018;6.306;2023-04-29T07:05:34;101829.81;;;9.82;100.00
18900;BME280;9582;52.018;6.306;2023-04-29T07:08:02;101829.78;;;9.84;100.00
18900;BME280;9582;52.018;6.306;2023-04-29T07:10:28;101837.63;;;9.84;100.00
18900;BME280;9582;52.018;6.306;2023-04-29T07:12:55;101842.88;;;9.82;100.00
18900;BME280;9582;52.018;6.306;2023-04-29T07:15:22;101848.88;;;9.86;100.00
18900;BME280;9582;52.018;6.306;2023-04-29T07:17:48;101859.41;;;9.83;100.00
18900;BME280;9582;52.018;6.306;2023-04-29T07:20:15;101860.97;;;9.90;100.00
18900;BME280;9582;52.018;6.306;2023-04-29T07:22:42;101871.59;;;9.84;100.00
18900;BME280;9582;52.018;6.306;2023-04-29T07:25:10;101876.00;;;9.82;100.00
18900;BME280;9582;52.018;6.306;2023-04-29T07:27:37;101875.88;;;9.86;100.00
18900;BME280;9582;52.018;6.306;2023-04-29T07:30:04;101880.88;;;9.96;100.00
18900;BME280;9582;52.018;6.306;2023-04-29T07:32:31;101891.28;;;9.97;100.00
18900;BME280;9582;52.018;6.306;2023-04-29T07:35:01;101891.28;;;9.97;100.00
18900;BME280;9582;52.018;6.306;2023-04-29T07:37:29;101899.09;;;9.97;100.00
18900;BME280;9582;52.018;6.306;2023-04-29T07:39:55;101899.81;;;10.04;100.00
18900;BME280;9582;52.018;6.306;2023-04-29T07:42:23;101905.75;;;10.10;100.00
18900;BME280;9582;52.018;6.306;2023-04-29T07:44:50;101907.34;;;10.17;100.00
18900;BME280;9582;52.018;6.306;2023-04-29T07:47:17;101908.03;;;10.24;100.00
18900;BME280;9582;52.018;6.306;2023-04-29T07:49:44;101918.22;;;10.34;100.00
18900;BME280;9582;52.018;6.306;2023-04-29T07:52:10;101912.84;;;10.39;100.00
18900;BME280;9582;52.018;6.306;2023-04-29T07:54:37;101929.25;;;10.46;100.00
18900;BME280;9582;52.018;6.306;2023-04-29T07:57:04;101926.50;;;10.50;100.00
18900;BME280;9582;52.018;6.306;2023-04-29T07:59:32;101933.50;;;10.50;100.00
18900;BME280;9582;52.018;6.306;2023-04-29T08:01:58;101942.16;;;10.52;100.00
18900;BME280;9582;52.018;6.306;2023-04-29T08:04:25;101946.41;;;10.56;100.00
18900;BME280;9582;52.018;6.306;2023-04-29T08:07:02;101953.28;;;10.60;100.00
18900;BME280;9582;52.018;6.306;2023-04-29T08:09:29;101957.56;;;10.62;100.00
18900;BME280;9582;52.018;6.306;2023-04-29T08:11:56;101959.00;;;10.74;100.00
18900;BME280;9582;52.018;6.306;2023-04-29T08:14:22;101957.94;;;10.81;100.00
18900;BME280;9582;52.018;6.306;2023-04-29T08:16:50;101968.50;;;10.78;100.00
18900;BME280;9582;52.018;6.306;2023-04-29T08:19:17;101979.59;;;10.86;100.00
18900;BME280;9582;52.018;6.306;2023-04-29T08:21:43;101982.81;;;10.95;100.00
18900;BME280;9582;52.018;6.306;2023-04-29T08:24:10;101983.59;;;10.99;100.00
18900;BME280;9582;52.018;6.306;2023-04-29T08:26:38;101993.00;;;11.06;100.00
18900;BME280;9582;52.018;6.306;2023-04-29T08:29:05;101995.31;;;11.17;100.00
18900;BME280;9582;52.018;6.306;2023-04-29T08:31:32;102007.53;;;11.16;100.00
18900;BME280;9582;52.018;6.306;2023-04-29T08:33:59;102011.97;;;11.14;100.00
18900;BME280;9582;52.018;6.306;2023-04-29T08:36:26;102018.88;;;11.15;100.00
18900;BME280;9582;52.018;6.306;2023-04-29T08:38:54;102026.75;;;11.15;100.00
18900;BME280;9582;52.018;6.306;2023-04-29T08:41:20;102028.47;;;11.16;100.00
18900;BME280;9582;52.018;6.306;2023-04-29T08:43:47;102033.47;;;11.25;100.00
18900;BME280;9582;52.018;6.306;2023-04-29T08:46:14;102033.28;;;11.31;100.00
18900;BME280;9582;52.018;6.306;2023-04-29T08:48:41;102036.53;;;11.39;100.00
18900;BME280;9582;52.018;6.306;2023-04-29T08:51:11;102048.38;;;11.52;100.00
18900;BME280;9582;52.018;6.306;2023-04-29T08:53:38;102042.28;;;11.52;100.00
18900;BME280;9582;52.018;6.306;2023-04-29T08:56:08;102050.91;;;11.55;100.00
18900;BME280;9582;52.018;6.306;2023-04-29T08:58:39;102055.75;;;11.69;100.00
18900;BME280;9582;52.018;6.306;2023-04-29T09:01:07;102065.97;;;11.78;100.00
18900;BME280;9582;52.018;6.306;2023-04-29T09:03:41;102072.66;;;11.88;100.00
18900;BME280;9582;52.018;6.306;2023-04-29T09:06:09;102075.56;;;11.79;100.00
18900;BME280;9582;52.018;6.306;2023-04-29T09:08:38;102076.19;;;11.87;100.00
18900;BME280;9582;52.018;6.306;2023-04-29T09:11:07;102074.34;;;11.91;100.00
18900;BME280;9582;52.018;6.306;2023-04-29T09:13:34;102082.13;;;12.22;100.00
18900;BME280;9582;52.018;6.306;2023-04-29T09:16:00;102085.50;;;12.51;100.00
18900;BME280;9582;52.018;6.306;2023-04-29T09:18:44;102092.94;;;12.39;100.00
18900;BME280;9582;52.018;6.306;2023-04-29T09:21:16;102105.66;;;12.23;100.00
18900;BME280;9582;52.018;6.306;2023-04-29T09:23:44;102105.38;;;12.32;100.00
18900;BME280;9582;52.018;6.306;2023-04-29T09:26:11;102100.00;;;12.63;100.00
18900;BME280;9582;52.018;6.306;2023-04-29T09:28:38;102106.13;;;12.63;100.00
18900;BME280;9582;52.018;6.306;2023-04-29T09:31:08;102120.91;;;12.66;100.00
18900;BME280;9582;52.018;6.306;2023-04-29T09:33:51;102117.72;;;12.83;100.00
18900;BME280;9582;52.018;6.306;2023-04-29T09:36:35;102130.91;;;12.81;100.00
18900;BME280;9582;52.018;6.306;2023-04-29T09:39:03;102140.75;;;12.74;100.00
18900;BME280;9582;52.018;6.306;2023-04-29T09:41:35;102140.47;;;12.82;100.00
18900;BME280;9582;52.018;6.306;2023-04-29T09:44:02;102160.84;;;12.76;100.00
18900;BME280;9582;52.018;6.306;2023-04-29T09:46:31;102155.91;;;12.65;100.00
18900;BME280;9582;52.018;6.306;2023-04-29T09:48:58;102158.50;;;12.66;100.00
18900;BME280;9582;52.018;6.306;2023-04-29T09:51:24;102157.91;;;13.11;100.00
18900;BME280;9582;52.018;6.306;2023-04-29T09:53:50;102163.63;;;13.23;100.00
18900;BME280;9582;52.018;6.306;2023-04-29T09:56:18;102189.28;;;12.88;100.00
18900;BME280;9582;52.018;6.306;2023-04-29T09:58:45;102188.66;;;12.81;100.00
18900;BME280;9582;52.018;6.306;2023-04-29T10:01:12;102196.28;;;12.61;100.00
18900;BME280;9582;52.018;6.306;2023-04-29T10:03:44;102191.38;;;13.04;100.00
18900;BME280;9582;52.018;6.306;2023-04-29T10:06:11;102207.06;;;13.07;100.00
18900;BME280;9582;52.018;6.306;2023-04-29T10:08:38;102219.28;;;13.07;100.00
18900;BME280;9582;52.018;6.306;2023-04-29T10:11:06;102231.28;;;12.89;100.00
18900;BME280;9582;52.018;6.306;2023-04-29T10:13:34;102227.00;;;12.85;100.00
18900;BME280;9582;52.018;6.306;2023-04-29T10:16:10;102236.53;;;13.15;100.00
18900;BME280;9582;52.018;6.306;2023-04-29T10:18:40;102221.56;;;13.44;100.00
18900;BME280;9582;52.018;6.306;2023-04-29T10:21:10;102214.63;;;13.67;100.00
18900;BME280;9582;52.018;6.306;2023-04-29T10:23:38;102231.47;;;13.37;100.00
18900;BME280;9582;52.018;6.306;2023-04-29T10:26:06;102223.50;;;13.63;100.00
18900;BME280;9582;52.018;6.306;2023-04-29T10:28:36;102213.06;;;14.10;100.00
18900;BME280;9582;52.018;6.306;2023-04-29T10:31:05;102225.72;;;14.47;100.00
18900;BME280;9582;52.018;6.306;2023-04-29T10:33:34;102230.00;;;14.49;100.00
18900;BME280;9582;52.018;6.306;2023-04-29T10:36:02;102259.41;;;14.14;100.00
18900;BME280;9582;52.018;6.306;2023-04-29T10:38:34;102267.72;;;14.02;100.00
18900;BME280;9582;52.018;6.306;2023-04-29T10:41:08;102282.06;;;13.93;100.00
18900;BME280;9582;52.018;6.306;2023-04-29T10:43:37;102283.75;;;13.69;100.00
18900;BME280;9582;52.018;6.306;2023-04-29T10:46:19;102278.69;;;13.65;100.00
18900;BME280;9582;52.018;6.306;2023-04-29T10:48:47;102285.09;;;14.06;100.00
18900;BME280;9582;52.018;6.306;2023-04-29T10:51:31;102292.47;;;13.96;100.00
18900;BME280;9582;52.018;6.306;2023-04-29T10:53:59;102308.00;;;13.77;100.00
18900;BME280;9582;52.018;6.306;2023-04-29T10:56:37;102309.19;;;13.69;100.00
18900;BME280;9582;52.018;6.306;2023-04-29T10:59:09;102307.63;;;13.63;100.00
18900;BME280;9582;52.018;6.306;2023-04-29T11:01:41;102304.16;;;13.63;100.00
18900;BME280;9582;52.018;6.306;2023-04-29T11:04:08;102312.25;;;13.57;100.00
18900;BME280;9582;52.018;6.306;2023-04-29T11:06:39;102314.00;;;13.82;100.00
18900;BME280;9582;52.018;6.306;2023-04-29T11:09:08;102320.16;;;13.81;100.00
18900;BME280;9582;52.018;6.306;2023-04-29T11:11:40;102319.75;;;13.94;100.00
18900;BME280;9582;52.018;6.306;2023-04-29T11:14:08;102320.44;;;13.99;100.00
18900;BME280;9582;52.018;6.306;2023-04-29T11:16:36;102318.50;;;14.04;100.00
18900;BME280;9582;52.018;6.306;2023-04-29T11:19:04;102318.09;;;13.91;100.00
18900;BME280;9582;52.018;6.306;2023-04-29T11:21:33;102311.75;;;13.97;100.00
18900;BME280;9582;52.018;6.306;2023-04-29T11:24:00;102312.53;;;13.99;100.00
18900;BME280;9582;52.018;6.306;2023-04-29T11:26:27;102296.94;;;14.17;100.00
18900;BME280;9582;52.018;6.306;2023-04-29T11:28:53;102282.53;;;14.52;100.00
18900;BME280;9582;52.018;6.306;2023-04-29T11:31:26;102305.88;;;14.61;100.00
18900;BME280;9582;52.018;6.306;2023-04-29T11:33:54;102319.44;;;14.26;100.00
18900;BME280;9582;52.018;6.306;2023-04-29T11:36:20;102325.06;;;14.17;100.00
18900;BME280;9582;52.018;6.306;2023-04-29T11:38:47;102343.84;;;14.06;100.00
18900;BME280;9582;52.018;6.306;2023-04-29T11:41:13;102346.53;;;14.05;100.00
18900;BME280;9582;52.018;6.306;2023-04-29T11:43:40;102349.94;;;13.82;100.00
18900;BME280;9582;52.018;6.306;2023-04-29T11:46:11;102339.69;;;13.74;100.00
18900;BME280;9582;52.018;6.306;2023-04-29T11:48:45;102342.66;;;13.90;100.00
18900;BME280;9582;52.018;6.306;2023-04-29T11:51:12;102335.31;;;14.00;100.00
18900;BME280;9582;52.018;6.306;2023-04-29T11:53:39;102333.66;;;14.22;100.00
18900;BME280;9582;52.018;6.306;2023-04-29T11:56:07;102323.63;;;14.31;100.00
18900;BME280;9582;52.018;6.306;2023-04-29T11:58:34;102325.28;;;14.59;100.00
18900;BME280;9582;52.018;6.306;2023-04-29T12:01:01;102331.00;;;15.15;100.00
18900;BME280;9582;52.018;6.306;2023-04-29T12:03:28;102351.84;;;15.21;100.00
18900;BME280;9582;52.018;6.306;2023-04-29T12:05:58;102364.03;;;15.23;100.00
18900;BME280;9582;52.018;6.306;2023-04-29T12:08:26;102353.94;;;15.34;100.00
18900;BME280;9582;52.018;6.306;2023-04-29T12:10:54;102348.56;;;15.36;100.00
18900;BME280;9582;52.018;6.306;2023-04-29T12:13:22;102372.38;;;15.34;100.00
18900;BME280;9582;52.018;6.306;2023-04-29T12:15:51;102379.53;;;15.09;100.00
18900;BME280;9582;52.018;6.306;2023-04-29T12:18:18;102370.44;;;14.71;100.00
18900;BME280;9582;52.018;6.306;2023-04-29T12:20:48;102363.91;;;14.58;100.00
18900;BME280;9582;52.018;6.306;2023-04-29T12:23:20;102344.28;;;14.90;100.00
18900;BME280;9582;52.018;6.306;2023-04-29T12:25:48;102342.84;;;15.26;100.00
18900;BME280;9582;52.018;6.306;2023-04-29T12:28:16;102355.78;;;15.32;100.00
18900;BME280;9582;52.018;6.306;2023-04-29T12:30:43;102385.25;;;15.20;100.00
18900;BME280;9582;52.018;6.306;2023-04-29T12:33:14;102396.31;;;15.07;100.00
18900;BME280;9582;52.018;6.306;2023-04-29T12:35:43;102410.47;;;15.04;100.00
18900;BME280;9582;52.018;6.306;2023-04-29T12:38:10;102398.31;;;15.00;100.00
18900;BME280;9582;52.018;6.306;2023-04-29T12:40:39;102393.50;;;15.11;100.00
18900;BME280;9582;52.018;6.306;2023-04-29T12:43:06;102392.81;;;15.06;100.00
18900;BME280;9582;52.018;6.306;2023-04-29T12:45:33;102401.06;;;14.97;100.00
18900;BME280;9582;52.018;6.306;2023-04-29T12:48:00;102396.97;;;14.90;100.00
18900;BME280;9582;52.018;6.306;2023-04-29T12:50:33;102409.31;;;15.11;100.00
18900;BME280;9582;52.018;6.306;2023-04-29T12:53:01;102414.19;;;15.43;100.00
18900;BME280;9582;52.018;6.306;2023-04-29T12:55:28;102410.16;;;15.78;100.00
18900;BME280;9582;52.018;6.306;2023-04-29T12:57:58;102419.72;;;15.81;100.00
18900;BME280;9582;52.018;6.306;2023-04-29T13:00:24;102436.78;;;15.50;100.00
18900;BME280;9582;52.018;6.306;2023-04-29T13:02:51;102439.50;;;15.49;100.00
18900;BME280;9582;52.018;6.306;2023-04-29T13:05:17;102451.56;;;15.31;100.00
18900;BME280;9582;52.018;6.306;2023-04-29T13:07:44;102453.91;;;15.16;100.00